createdAt,value
2023-04-07T00:02:02.785Z,11.20
2023-04-07T00:04:30.654Z,12.17
2023-04-07T00:06:59.676Z,11.17
2023-04-07T00:09:27.384Z,12.07
2023-04-07T00:11:55.046Z,11.63
2023-04-07T00:14:22.700Z,11.07
2023-04-07T00:16:50.349Z,10.87
2023-04-07T00:19:18.038Z,10.67
2023-04-07T00:21:45.820Z,11.77
2023-04-07T00:24:18.539Z,11.17
2023-04-07T00:26:55.001Z,10.70
2023-04-07T00:29:22.737Z,10.53
2023-04-07T00:31:50.370Z,11.47
2023-04-07T00:34:17.964Z,11.50
2023-04-07T00:36:51.849Z,11.07
2023-04-07T00:39:21.677Z,11.00
2023-04-07T00:41:49.405Z,11.90
2023-04-07T00:44:17.079Z,10.53
2023-04-07T00:46:45.048Z,12.40
2023-04-07T00:49:13.235Z,11.90
2023-04-07T00:51:40.921Z,12.07
2023-04-07T00:54:08.549Z,11.40
2023-04-07T00:56:37.536Z,11.60
2023-04-07T00:59:06.140Z,11.97
2023-04-07T01:01:42.131Z,12.23
2023-04-07T01:04:12.768Z,12.90
2023-04-07T01:06:49.317Z,11.53
2023-04-07T01:09:20.476Z,11.07
2023-04-07T01:12:02.108Z,11.07
2023-04-07T01:14:38.492Z,12.17
2023-04-07T01:17:08.743Z,11.27
2023-04-07T01:19:40.694Z,11.43
2023-04-07T01:22:13.449Z,11.53
2023-04-07T01:24:59.255Z,10.67
2023-04-07T01:27:37.931Z,10.70
2023-04-07T01:30:11.866Z,10.37
2023-04-07T01:32:41.742Z,10.43
2023-04-07T01:35:13.388Z,11.53
2023-04-07T01:37:42.111Z,11.10
2023-04-07T01:40:11.079Z,12.10
2023-04-07T01:42:40.828Z,11.37
2023-04-07T01:45:11.741Z,11.60
2023-04-07T01:47:40.394Z,12.33
2023-04-07T01:50:09.451Z,12.03
2023-04-07T01:52:37.806Z,11.43
2023-04-07T01:55:06.270Z,11.73
2023-04-07T01:57:34.179Z,12.20
2023-04-07T02:00:01.855Z,12.50
2023-04-07T02:02:31.626Z,12.33
2023-04-07T02:05:05.539Z,11.47
2023-04-07T02:07:40.623Z,12.03
2023-04-07T02:10:12.060Z,11.73
2023-04-07T02:12:41.995Z,12.93
2023-04-07T02:15:12.616Z,12.23
2023-04-07T02:17:45.955Z,12.43
2023-04-07T02:20:14.438Z,12.23
2023-04-07T02:22:44.747Z,11.73
2023-04-07T02:25:25.994Z,12.93
2023-04-07T02:27:54.343Z,11.97
2023-04-07T02:30:22.811Z,12.17
2023-04-07T02:32:52.020Z,11.90
2023-04-07T02:35:19.736Z,12.17
2023-04-07T02:37:48.210Z,12.30
2023-04-07T02:40:15.921Z,11.60
2023-04-07T02:42:43.736Z,11.70
2023-04-07T02:45:12.415Z,12.17
2023-04-07T02:47:40.924Z,13.03
2023-04-07T02:50:11.003Z,12.23
2023-04-07T02:52:38.697Z,11.87
2023-04-07T02:55:07.336Z,11.37
2023-04-07T02:57:35.032Z,11.57
2023-04-07T03:00:02.945Z,11.90
2023-04-07T03:02:30.932Z,12.33
2023-04-07T03:04:59.048Z,11.53
2023-04-07T03:07:28.105Z,12.13
2023-04-07T03:09:55.722Z,11.40
2023-04-07T03:12:23.323Z,11.33
2023-04-07T03:14:50.952Z,12.80
2023-04-07T03:17:18.661Z,11.10
2023-04-07T03:19:47.037Z,12.93
2023-04-07T03:22:14.788Z,11.93
2023-04-07T03:24:43.778Z,12.93
2023-04-07T03:27:11.508Z,11.80
2023-04-07T03:29:39.155Z,12.43
2023-04-07T03:32:07.097Z,11.83
2023-04-07T03:34:34.686Z,12.93
2023-04-07T03:37:02.361Z,11.93
2023-04-07T03:39:30.189Z,13.17
2023-04-07T03:41:59.304Z,11.83
2023-04-07T03:44:26.916Z,11.60
2023-04-07T03:46:54.613Z,12.70
2023-04-07T03:49:22.264Z,13.40
2023-04-07T03:51:49.865Z,12.43
2023-04-07T03:54:17.537Z,11.73
2023-04-07T03:56:45.754Z,13.03
2023-04-07T03:59:14.805Z,12.03
2023-04-07T04:01:42.615Z,12.00
2023-04-07T04:04:10.420Z,13.43
2023-04-07T04:06:38.268Z,12.43
2023-04-07T04:09:06.029Z,11.60
2023-04-07T04:11:33.653Z,12.03
2023-04-07T04:14:01.264Z,12.23
2023-04-07T04:16:31.483Z,11.97
2023-04-07T04:18:59.099Z,13.80
2023-04-07T04:21:27.316Z,13.20
2023-04-07T04:23:55.172Z,13.13
2023-04-07T04:26:25.982Z,12.73
2023-04-07T04:28:53.725Z,13.43
2023-04-07T04:31:21.420Z,12.17
2023-04-07T04:33:50.643Z,12.10
2023-04-07T04:36:18.497Z,12.70
2023-04-07T04:38:46.260Z,12.33
2023-04-07T04:41:13.844Z,12.17
2023-04-07T04:43:42.488Z,12.50
2023-04-07T04:46:10.480Z,12.53
2023-04-07T04:48:38.191Z,12.97
2023-04-07T04:51:08.522Z,11.87
2023-04-07T04:53:36.108Z,11.60
2023-04-07T04:56:03.771Z,12.40
2023-04-07T04:58:31.420Z,12.43
2023-04-07T05:01:00.475Z,11.90
2023-04-07T05:03:29.364Z,12.77
2023-04-07T05:05:57.132Z,12.47
2023-04-07T05:08:26.307Z,12.97
2023-04-07T05:10:55.082Z,12.43
2023-04-07T05:13:22.704Z,12.60
2023-04-07T05:15:50.441Z,12.47
2023-04-07T05:18:18.210Z,13.50
2023-04-07T05:20:45.828Z,11.93
2023-04-07T05:23:13.464Z,12.73
2023-04-07T05:25:42.461Z,12.37
2023-04-07T05:28:10.164Z,12.33
2023-04-07T05:30:37.880Z,12.03
2023-04-07T05:33:05.716Z,12.33
2023-04-07T05:35:33.430Z,11.53
2023-04-07T05:38:01.159Z,11.53
2023-04-07T05:40:30.194Z,12.63
2023-04-07T05:42:59.181Z,12.13
2023-04-07T05:45:27.194Z,12.17
2023-04-07T05:47:54.902Z,12.50
2023-04-07T05:50:22.560Z,12.03
2023-04-07T05:52:50.371Z,12.20
2023-04-07T05:55:18.106Z,11.07
2023-04-07T05:57:46.155Z,11.53
2023-04-07T06:00:16.518Z,12.00
2023-04-07T06:02:44.269Z,11.43
2023-04-07T06:05:12.168Z,12.73
2023-04-07T06:07:39.852Z,11.53
2023-04-07T06:10:09.217Z,12.50
2023-04-07T06:12:36.874Z,11.80
2023-04-07T06:15:04.798Z,12.40
2023-04-07T06:17:33.892Z,11.57
2023-04-07T06:20:01.559Z,11.83
2023-04-07T06:22:29.232Z,12.13
2023-04-07T06:24:56.868Z,12.03
2023-04-07T06:27:24.614Z,12.37
2023-04-07T06:29:52.302Z,12.13
2023-04-07T06:32:20.339Z,12.37
2023-04-07T06:34:49.419Z,11.77
2023-04-07T06:37:17.218Z,11.83
2023-04-07T06:39:45.392Z,11.40
2023-04-07T06:42:13.018Z,12.80
2023-04-07T06:44:40.653Z,12.47
2023-04-07T06:47:09.025Z,11.13
2023-04-07T06:49:37.283Z,10.97
2023-04-07T06:52:06.690Z,11.63
2023-04-07T06:54:34.342Z,13.37
2023-04-07T06:57:02.706Z,12.20
2023-04-07T06:59:30.411Z,11.30
2023-04-07T07:01:58.148Z,11.97
2023-04-07T07:04:26.426Z,11.33
2023-04-07T07:06:55.977Z,11.80
2023-04-07T07:09:24.981Z,11.87
2023-04-07T07:11:52.725Z,11.33
2023-04-07T07:14:20.438Z,10.43
2023-04-07T07:16:48.055Z,10.50
2023-04-07T07:19:16.260Z,11.83
2023-04-07T07:21:43.954Z,11.37
2023-04-07T07:24:11.686Z,11.47
2023-04-07T07:26:43.478Z,11.07
2023-04-07T07:29:11.833Z,11.83
2023-04-07T07:31:39.509Z,10.87
2023-04-07T07:34:07.472Z,10.20
2023-04-07T07:36:35.117Z,10.70
2023-04-07T07:39:02.778Z,10.33
2023-04-07T07:41:30.823Z,9.87
2023-04-07T07:43:59.832Z,9.50
2023-04-07T07:46:27.521Z,9.57
2023-04-07T07:48:55.242Z,10.20
2023-04-07T07:51:23.474Z,10.40
2023-04-07T07:53:51.244Z,9.50
2023-04-07T07:56:18.934Z,9.57
2023-04-07T07:58:46.985Z,9.67
2023-04-07T08:01:16.001Z,9.13
2023-04-07T08:03:43.745Z,9.30
2023-04-07T08:06:11.930Z,9.57
2023-04-07T08:08:39.862Z,9.57
2023-04-07T08:11:07.518Z,9.57
2023-04-07T08:13:35.155Z,9.73
2023-04-07T08:16:03.225Z,9.73
2023-04-07T08:18:32.267Z,8.90
2023-04-07T08:20:59.911Z,9.20
2023-04-07T08:23:27.570Z,9.47
2023-04-07T08:25:55.418Z,9.10
2023-04-07T08:28:23.139Z,9.17
2023-04-07T08:30:50.772Z,9.10
2023-04-07T08:33:18.486Z,9.23
2023-04-07T08:35:47.601Z,9.83
2023-04-07T08:38:15.511Z,9.93
2023-04-07T08:40:43.738Z,9.33
2023-04-07T08:43:11.533Z,10.57
2023-04-07T08:45:42.148Z,11.30
2023-04-07T08:48:18.817Z,8.40
2023-04-07T08:50:52.601Z,9.57
2023-04-07T08:53:25.680Z,7.57
2023-04-07T08:55:53.836Z,6.83
2023-04-07T08:58:22.383Z,6.53
2023-04-07T09:00:50.438Z,7.13
2023-04-07T09:03:19.449Z,5.97
2023-04-07T09:05:48.636Z,3.70
2023-04-07T09:08:16.348Z,3.27
2023-04-07T09:10:45.803Z,3.40
2023-04-07T09:13:13.474Z,3.63
2023-04-07T09:15:41.751Z,2.83
2023-04-07T09:18:09.573Z,2.63
2023-04-07T09:20:58.497Z,3.00
2023-04-07T09:23:31.062Z,3.07
2023-04-07T09:26:01.178Z,3.13
2023-04-07T09:28:41.832Z,3.50
2023-04-07T09:31:09.506Z,3.10
2023-04-07T09:33:37.341Z,3.40
2023-04-07T09:36:07.381Z,3.43
2023-04-07T09:38:35.986Z,3.87
2023-04-07T09:41:08.728Z,3.77
2023-04-07T09:43:41.160Z,4.80
2023-04-07T09:46:10.850Z,4.63
2023-04-07T09:48:38.994Z,6.03
2023-04-07T09:51:09.840Z,5.30
2023-04-07T09:53:48.844Z,6.50
2023-04-07T09:56:18.464Z,5.60
2023-04-07T09:58:47.804Z,4.83
2023-04-07T10:01:17.597Z,4.80
2023-04-07T10:03:47.857Z,4.70
2023-04-07T10:06:17.956Z,3.60
2023-04-07T10:08:45.999Z,3.00
2023-04-07T10:11:13.884Z,2.93
2023-04-07T10:13:42.151Z,3.07
2023-04-07T10:16:09.815Z,2.47
2023-04-07T10:18:38.164Z,2.80
2023-04-07T10:21:08.016Z,2.60
2023-04-07T10:23:57.359Z,2.80
2023-04-07T10:26:29.067Z,2.40
2023-04-07T10:29:00.691Z,2.73
2023-04-07T10:31:28.689Z,3.80
2023-04-07T10:33:57.524Z,2.90
2023-04-07T10:36:25.284Z,3.40
2023-04-07T10:39:23.166Z,3.57
2023-04-07T10:41:51.879Z,3.10
2023-04-07T10:44:49.827Z,3.60
2023-04-07T10:47:17.639Z,3.37
2023-04-07T10:50:22.239Z,3.57
2023-04-07T10:52:52.441Z,2.83
2023-04-07T10:55:35.987Z,3.00
2023-04-07T10:58:22.599Z,3.43
2023-04-07T11:01:30.007Z,2.77
2023-04-07T11:04:01.110Z,2.83
2023-04-07T11:06:29.092Z,3.03
2023-04-07T11:08:56.877Z,2.97
2023-04-07T11:11:40.555Z,3.47
2023-04-07T11:14:08.286Z,2.97
2023-04-07T11:16:39.047Z,3.40
2023-04-07T11:19:06.837Z,3.30
2023-04-07T11:21:35.015Z,3.93
2023-04-07T11:24:02.702Z,4.37
2023-04-07T11:26:30.989Z,3.87
2023-04-07T11:29:00.127Z,3.47
2023-04-07T11:31:31.309Z,4.17
2023-04-07T11:34:01.724Z,4.00
2023-04-07T11:36:32.395Z,4.07
2023-04-07T11:39:00.731Z,4.37
2023-04-07T11:41:30.602Z,4.20
2023-04-07T11:44:10.682Z,4.77
2023-04-07T11:46:53.132Z,4.70
2023-04-07T11:49:20.790Z,4.57
2023-04-07T11:51:48.389Z,4.33
2023-04-07T11:54:16.395Z,4.53
2023-04-07T11:56:46.586Z,4.47
2023-04-07T11:59:23.847Z,4.90
2023-04-07T12:01:55.340Z,4.40
2023-04-07T12:04:24.961Z,4.67
2023-04-07T12:06:53.061Z,4.43
2023-04-07T12:09:29.557Z,3.67
2023-04-07T12:11:58.459Z,4.30
2023-04-07T12:14:28.569Z,4.20
2023-04-07T12:16:57.973Z,4.07
2023-04-07T12:19:27.805Z,3.67
2023-04-07T12:21:55.538Z,3.53
2023-04-07T12:24:23.770Z,3.30
2023-04-07T12:26:51.510Z,3.83
2023-04-07T12:29:20.267Z,4.63
2023-04-07T12:31:51.035Z,4.67
2023-04-07T12:34:19.305Z,4.67
2023-04-07T12:36:46.980Z,4.40
2023-04-07T12:39:14.772Z,4.37
2023-04-07T12:41:42.525Z,3.57
2023-04-07T12:44:10.811Z,4.03
2023-04-07T12:46:38.521Z,3.33
2023-04-07T12:49:07.535Z,3.23
2023-04-07T12:51:35.392Z,3.13
2023-04-07T12:54:03.541Z,4.20
2023-04-07T12:56:31.535Z,4.70
2023-04-07T12:58:59.366Z,3.70
2023-04-07T13:01:27.122Z,3.87
2023-04-07T13:03:54.926Z,3.63
2023-04-07T13:06:24.475Z,4.27
2023-04-07T13:08:52.102Z,4.00
2023-04-07T13:11:19.952Z,4.27
2023-04-07T13:13:47.745Z,3.23
2023-04-07T13:16:15.716Z,4.40
2023-04-07T13:18:43.591Z,4.83
2023-04-07T13:21:42.844Z,3.93
2023-04-07T13:24:00.698Z,3.47
2023-04-07T13:26:28.760Z,3.27
2023-04-07T13:28:56.364Z,3.10
2023-04-07T13:31:24.168Z,4.57
2023-04-07T13:33:52.048Z,3.00
2023-04-07T13:36:21.227Z,3.20
2023-04-07T13:38:50.712Z,3.00
2023-04-07T13:41:19.768Z,3.10
2023-04-07T13:43:47.715Z,2.63
2023-04-07T13:46:28.002Z,2.10
2023-04-07T13:48:56.492Z,1.40
2023-04-07T13:51:24.325Z,1.60
2023-04-07T13:53:52.055Z,1.70
2023-04-07T13:56:22.223Z,1.70
2023-04-07T13:58:50.023Z,2.53
2023-04-07T14:01:18.032Z,2.53
2023-04-07T14:03:46.316Z,2.93
2023-04-07T14:06:14.134Z,3.03
2023-04-07T14:08:41.920Z,3.07
2023-04-07T14:11:09.575Z,3.87
2023-04-07T14:13:38.573Z,4.17
2023-04-07T14:16:08.049Z,4.30
2023-04-07T14:18:35.854Z,4.30
2023-04-07T14:21:03.565Z,3.43
2023-04-07T14:23:37.330Z,4.40
2023-04-07T14:26:05.523Z,4.20
2023-04-07T14:28:33.548Z,3.53
2023-04-07T14:31:02.649Z,4.03
2023-04-07T14:33:30.421Z,4.60
2023-04-07T14:35:58.371Z,4.17
2023-04-07T14:38:27.028Z,4.00
2023-04-07T14:40:54.821Z,4.03
2023-04-07T14:43:22.450Z,3.53
2023-04-07T14:45:50.085Z,3.63
2023-04-07T14:48:19.055Z,4.33
2023-04-07T14:50:47.659Z,3.30
2023-04-07T14:53:15.951Z,2.87
2023-04-07T14:55:43.680Z,3.27
2023-04-07T14:58:11.388Z,4.00
2023-04-07T15:00:39.101Z,3.93
2023-04-07T15:03:06.920Z,3.60
2023-04-07T15:05:36.072Z,3.77
2023-04-07T15:08:03.719Z,3.50
2023-04-07T15:10:35.389Z,3.27
2023-04-07T15:13:03.601Z,3.90
2023-04-07T15:15:31.282Z,2.93
2023-04-07T15:17:59.918Z,2.97
2023-04-07T15:20:27.883Z,2.83
2023-04-07T15:22:57.519Z,2.63
2023-04-07T15:25:25.326Z,2.77
2023-04-07T15:27:53.210Z,2.80
2023-04-07T15:30:21.002Z,2.90
2023-04-07T15:32:58.682Z,3.00
2023-04-07T15:35:26.532Z,3.33
2023-04-07T15:37:54.215Z,3.23
2023-04-07T15:40:23.581Z,3.13
2023-04-07T15:42:51.277Z,3.67
2023-04-07T15:45:18.908Z,2.87
2023-04-07T15:47:46.620Z,3.50
2023-04-07T15:50:14.310Z,3.77
2023-04-07T15:52:41.970Z,3.70
2023-04-07T15:55:10.534Z,3.33
2023-04-07T15:57:39.480Z,2.80
2023-04-07T16:00:08.548Z,2.60
2023-04-07T16:02:36.307Z,2.23
2023-04-07T16:05:04.208Z,2.53
2023-04-07T16:07:31.924Z,2.90
2023-04-07T16:09:59.592Z,2.90
2023-04-07T16:12:27.219Z,3.07
2023-04-07T16:14:56.235Z,2.67
2023-04-07T16:17:23.938Z,2.73
2023-04-07T16:19:51.643Z,3.50
2023-04-07T16:22:19.349Z,3.33
2023-04-07T16:24:47.142Z,3.30
2023-04-07T16:27:14.810Z,3.07
2023-04-07T16:29:42.431Z,3.40
2023-04-07T16:32:11.721Z,3.13
2023-04-07T16:34:39.358Z,2.60
2023-04-07T16:37:06.975Z,2.40
2023-04-07T16:39:34.652Z,2.60
2023-04-07T16:42:02.385Z,2.63
2023-04-07T16:44:30.032Z,3.10
2023-04-07T16:46:57.808Z,2.40
2023-04-07T16:49:26.968Z,2.20
2023-04-07T16:51:54.594Z,2.00
2023-04-07T16:54:22.264Z,2.50
2023-04-07T16:56:50.150Z,3.33
2023-04-07T16:59:17.874Z,2.93
2023-04-07T17:01:45.875Z,2.80
2023-04-07T17:04:13.954Z,2.83
2023-04-07T17:06:42.972Z,2.77
2023-04-07T17:09:12.144Z,3.93
2023-04-07T17:11:41.887Z,3.83
2023-04-07T17:14:09.615Z,3.27
2023-04-07T17:16:37.300Z,3.43
2023-04-07T17:19:04.904Z,2.20
2023-04-07T17:21:32.975Z,1.70
2023-04-07T17:24:02.076Z,2.13
2023-04-07T17:26:29.713Z,1.60
2023-04-07T17:28:57.366Z,1.30
2023-04-07T17:31:25.269Z,1.00
2023-04-07T17:33:53.306Z,1.50
2023-04-07T17:36:20.935Z,1.73
2023-04-07T17:38:48.686Z,1.70
2023-04-07T17:41:19.296Z,1.77
2023-04-07T17:43:47.139Z,2.23
2023-04-07T17:46:14.977Z,2.13
2023-04-07T17:48:44.768Z,1.97
2023-04-07T17:51:14.271Z,2.00
2023-04-07T17:53:42.030Z,2.20
2023-04-07T17:56:09.819Z,1.67
2023-04-07T17:58:38.823Z,1.97
2023-04-07T18:01:09.323Z,2.17
2023-04-07T18:03:37.269Z,2.37
2023-04-07T18:06:05.400Z,1.97
2023-04-07T18:08:33.116Z,2.00
2023-04-07T18:11:01.029Z,2.23
2023-04-07T18:13:28.687Z,2.50
2023-04-07T18:15:58.018Z,3.03
2023-04-07T18:18:25.791Z,2.57
2023-04-07T18:20:53.399Z,2.93
2023-04-07T18:23:21.079Z,2.80
2023-04-07T18:25:49.350Z,3.30
2023-04-07T18:28:17.277Z,3.13
2023-04-07T18:30:45.215Z,2.47
2023-04-07T18:33:14.359Z,2.30
2023-04-07T18:35:42.539Z,2.93
2023-04-07T18:38:10.278Z,3.23
2023-04-07T18:40:37.926Z,2.77
2023-04-07T18:43:05.835Z,3.40
2023-04-07T18:45:36.773Z,3.30
2023-04-07T18:48:05.096Z,3.83
2023-04-07T18:50:34.192Z,3.43
2023-04-07T18:53:01.963Z,3.50
2023-04-07T18:55:29.634Z,3.73
2023-04-07T18:57:57.377Z,3.50
2023-04-07T19:00:25.022Z,3.67
2023-04-07T19:02:55.466Z,3.27
2023-04-07T19:05:25.688Z,3.27
2023-04-07T19:07:55.078Z,2.80
2023-04-07T19:10:22.805Z,2.80
2023-04-07T19:12:50.561Z,2.63
2023-04-07T19:15:18.305Z,2.57
2023-04-07T19:17:46.051Z,2.93
2023-04-07T19:20:13.677Z,3.13
2023-04-07T19:22:41.900Z,2.50
2023-04-07T19:25:11.301Z,2.60
2023-04-07T19:27:39.518Z,3.20
2023-04-07T19:30:08.675Z,3.80
2023-04-07T19:32:36.497Z,3.63
2023-04-07T19:35:04.245Z,3.50
2023-04-07T19:37:31.970Z,2.90
2023-04-07T19:40:03.217Z,3.00
2023-04-07T19:42:32.821Z,3.20
2023-04-07T19:45:02.311Z,2.80
2023-04-07T19:47:30.421Z,2.67
2023-04-07T19:49:58.208Z,2.80
2023-04-07T19:52:26.025Z,3.03
2023-04-07T19:54:53.688Z,3.30
2023-04-07T19:57:21.736Z,2.97
2023-04-07T19:59:50.786Z,3.73
2023-04-07T20:02:18.701Z,3.63
2023-04-07T20:04:46.436Z,4.10
2023-04-07T20:07:14.076Z,4.17
2023-04-07T20:09:41.667Z,3.47
2023-04-07T20:12:09.288Z,3.43
2023-04-07T20:14:37.713Z,4.00
2023-04-07T20:17:06.853Z,4.43
2023-04-07T20:19:34.676Z,4.03
2023-04-07T20:22:02.300Z,4.53
2023-04-07T20:24:30.496Z,4.50
2023-04-07T20:26:58.673Z,4.00
2023-04-07T20:29:26.536Z,4.13
2023-04-07T20:31:54.541Z,4.37
2023-04-07T20:34:23.607Z,3.93
2023-04-07T20:36:51.313Z,4.43
2023-04-07T20:39:19.035Z,5.33
2023-04-07T20:41:46.983Z,5.07
2023-04-07T20:44:14.625Z,4.67
2023-04-07T20:46:42.857Z,4.40
2023-04-07T20:49:10.757Z,5.20
2023-04-07T20:51:40.066Z,4.47
2023-04-07T20:54:07.823Z,4.53
2023-04-07T20:56:35.633Z,4.63
2023-04-07T20:59:03.244Z,5.03
2023-04-07T21:01:30.920Z,5.20
2023-04-07T21:04:00.808Z,4.63
2023-04-07T21:06:28.609Z,4.50
2023-04-07T21:08:57.635Z,4.60
2023-04-07T21:11:26.014Z,4.97
2023-04-07T21:13:53.970Z,4.97
2023-04-07T21:16:21.770Z,4.93
2023-04-07T21:18:49.629Z,5.10
2023-04-07T21:21:17.350Z,5.20
2023-04-07T21:23:45.154Z,4.97
2023-04-07T21:26:14.229Z,4.70
2023-04-07T21:28:42.088Z,5.00
2023-04-07T21:31:10.207Z,4.70
2023-04-07T21:33:39.197Z,5.40
2023-04-07T21:36:07.772Z,5.03
2023-04-07T21:38:35.500Z,5.63
2023-04-07T21:41:03.167Z,4.50
2023-04-07T21:43:34.547Z,5.03
2023-04-07T21:46:02.586Z,4.73
2023-04-07T21:48:32.396Z,4.80
2023-04-07T21:50:59.988Z,5.13
2023-04-07T21:53:27.731Z,4.90
2023-04-07T21:55:55.405Z,6.10
2023-04-07T21:58:23.679Z,5.10
2023-04-07T22:00:53.258Z,4.97
2023-04-07T22:03:21.027Z,5.33
2023-04-07T22:05:48.881Z,6.00
2023-04-07T22:08:16.727Z,5.47
2023-04-07T22:10:44.466Z,5.33
2023-04-07T22:13:12.072Z,6.00
2023-04-07T22:15:39.694Z,5.67
2023-04-07T22:18:08.736Z,6.17
2023-04-07T22:20:36.712Z,6.50
2023-04-07T22:23:04.324Z,6.13
2023-04-07T22:25:31.963Z,6.13
2023-04-07T22:27:59.647Z,5.63
2023-04-07T22:30:27.557Z,6.30
2023-04-07T22:32:55.307Z,5.70
2023-04-07T22:35:24.363Z,6.30
2023-04-07T22:37:52.053Z,6.13
2023-04-07T22:40:19.767Z,5.70
2023-04-07T22:42:47.371Z,5.77
2023-04-07T22:45:15.156Z,6.03
2023-04-07T22:47:42.842Z,5.83
2023-04-07T22:50:11.729Z,5.77
2023-04-07T22:52:40.744Z,6.00
2023-04-07T22:55:09.619Z,4.90
2023-04-07T22:57:37.306Z,4.83
2023-04-07T23:00:05.785Z,5.10
2023-04-07T23:02:33.557Z,4.83
2023-04-07T23:05:01.426Z,5.87
2023-04-07T23:07:29.092Z,5.93
2023-04-07T23:09:58.491Z,5.37
2023-04-07T23:12:26.244Z,5.80
2023-04-07T23:14:53.892Z,6.33
2023-04-07T23:17:21.687Z,5.97
2023-04-07T23:19:49.427Z,6.70
2023-04-07T23:22:17.107Z,6.57
2023-04-07T23:24:44.904Z,7.33
2023-04-07T23:27:13.872Z,6.93
2023-04-07T23:29:41.457Z,7.67
2023-04-07T23:32:09.193Z,9.13
2023-04-07T23:34:36.803Z,8.00
2023-04-07T23:37:04.484Z,8.23
2023-04-07T23:39:32.137Z,8.13
2023-04-07T23:41:59.822Z,7.60
2023-04-07T23:44:28.791Z,8.87
2023-04-07T23:46:56.470Z,8.50
2023-04-07T23:49:24.089Z,8.20
2023-04-07T23:51:52.440Z,8.63
2023-04-07T23:54:20.078Z,8.87
2023-04-07T23:56:47.712Z,8.63
2023-04-07T23:59:15.427Z,8.63
